createdAt,value
2018-04-26T00:00:13.462Z,8.30
2018-04-26T00:01:12.975Z,5.10
2018-04-26T00:03:13.446Z,7.50
2018-04-26T00:04:13.395Z,5.90
2018-04-26T00:06:13.844Z,9.40
2018-04-26T00:07:13.835Z,6.20
2018-04-26T00:09:14.292Z,6.50
2018-04-26T00:10:14.293Z,8.20
2018-04-26T00:12:14.736Z,6.40
2018-04-26T00:13:14.744Z,6.90
2018-04-26T00:15:21.676Z,7.50
2018-04-26T00:16:19.165Z,4.60
2018-04-26T00:18:19.668Z,7.20
2018-04-26T00:19:20.090Z,4.20
2018-04-26T00:21:20.074Z,8.70
2018-04-26T00:22:20.537Z,6.60
2018-04-26T00:24:20.547Z,6.60
2018-04-26T00:25:20.482Z,7.00
2018-04-26T00:27:18.894Z,8.50
2018-04-26T00:28:18.383Z,8.80
2018-04-26T00:30:14.361Z,7.10
2018-04-26T00:31:14.831Z,6.50
2018-04-26T00:33:11.272Z,6.40
2018-04-26T00:34:10.768Z,6.40
2018-04-26T00:36:06.157Z,7.90
2018-04-26T00:37:06.714Z,6.70
2018-04-26T00:39:02.117Z,6.80
2018-04-26T00:40:02.089Z,5.50
2018-04-26T00:41:58.056Z,5.80
2018-04-26T00:42:58.015Z,7.50
2018-04-26T00:44:54.984Z,7.90
2018-04-26T00:45:53.983Z,7.60
2018-04-26T00:47:50.935Z,7.80
2018-04-26T00:48:49.920Z,7.60
2018-04-26T00:50:44.878Z,7.60
2018-04-26T00:51:44.339Z,9.10
2018-04-26T00:53:41.298Z,10.50
2018-04-26T00:54:40.263Z,9.30
2018-04-26T00:56:36.749Z,9.00
2018-04-26T00:57:36.212Z,8.40
2018-04-26T00:59:32.657Z,9.30
2018-04-26T01:00:32.664Z,6.80
2018-04-26T01:02:28.620Z,8.50
2018-04-26T01:03:28.614Z,12.20
2018-04-26T01:05:26.555Z,9.30
2018-04-26T01:06:26.105Z,8.30
2018-04-26T01:08:22.068Z,8.10
2018-04-26T01:09:22.061Z,9.70
2018-04-26T01:11:18.007Z,8.90
2018-04-26T01:12:18.001Z,9.60
2018-04-26T01:14:12.941Z,7.50
2018-04-26T01:15:12.425Z,9.20
2018-04-26T01:17:08.873Z,10.00
2018-04-26T01:18:08.889Z,7.50
2018-04-26T01:20:04.311Z,9.70
2018-04-26T01:21:04.807Z,6.60
2018-04-26T01:23:01.234Z,7.60
2018-04-26T01:24:00.225Z,8.00
2018-04-26T01:25:56.683Z,7.70
2018-04-26T01:26:56.114Z,8.60
2018-04-26T01:28:50.567Z,7.70
2018-04-26T01:29:51.063Z,9.20
2018-04-26T01:31:46.548Z,11.30
2018-04-26T01:32:46.503Z,9.40
2018-04-26T01:34:42.464Z,6.40
2018-04-26T01:35:42.951Z,9.40
2018-04-26T01:37:38.389Z,9.00
2018-04-26T01:38:38.357Z,8.80
2018-04-26T01:40:32.830Z,10.10
2018-04-26T01:41:33.820Z,8.40
2018-04-26T01:43:28.795Z,7.60
2018-04-26T01:44:28.755Z,9.30
2018-04-26T01:46:24.737Z,8.40
2018-04-26T01:47:24.665Z,6.60
2018-04-26T01:49:19.093Z,8.10
2018-04-26T01:50:19.089Z,7.90
2018-04-26T01:52:15.057Z,9.40
2018-04-26T01:53:15.022Z,7.90
2018-04-26T01:55:11.007Z,10.50
2018-04-26T01:56:10.958Z,7.00
2018-04-26T01:58:05.433Z,7.50
2018-04-26T01:59:05.412Z,6.00
2018-04-26T02:01:00.355Z,6.20
2018-04-26T02:01:59.829Z,6.90
2018-04-26T02:03:55.819Z,8.90
2018-04-26T02:04:56.284Z,6.90
2018-04-26T02:06:52.281Z,7.40
2018-04-26T02:07:52.659Z,6.40
2018-04-26T02:09:46.655Z,8.50
2018-04-26T02:10:46.136Z,9.40
2018-04-26T02:12:42.068Z,6.20
2018-04-26T02:13:42.071Z,8.60
2018-04-26T02:15:38.554Z,8.40
2018-04-26T02:16:38.516Z,8.20
2018-04-26T02:18:34.424Z,5.20
2018-04-26T02:19:33.906Z,5.80
2018-04-26T02:21:28.374Z,5.60
2018-04-26T02:22:28.339Z,7.00
2018-04-26T02:24:25.245Z,7.80
2018-04-26T02:25:24.276Z,7.80
2018-04-26T02:27:22.728Z,11.00
2018-04-26T02:28:22.212Z,6.90
2018-04-26T02:30:18.150Z,10.50
2018-04-26T02:31:18.152Z,10.00
2018-04-26T02:33:14.083Z,9.10
2018-04-26T02:34:14.091Z,11.90
2018-04-26T02:36:08.065Z,6.60
2018-04-26T02:37:07.492Z,12.40
2018-04-26T02:39:01.936Z,10.40
2018-04-26T02:40:01.915Z,10.10
2018-04-26T02:42:00.379Z,13.80
2018-04-26T02:42:59.863Z,13.30
2018-04-26T02:44:54.304Z,8.40
2018-04-26T02:45:54.293Z,9.70
2018-04-26T02:47:50.274Z,6.60
2018-04-26T02:48:50.259Z,7.70
2018-04-26T02:50:46.713Z,8.20
2018-04-26T02:51:46.203Z,7.50
2018-04-26T02:53:42.109Z,10.20
2018-04-26T02:54:42.646Z,9.90
2018-04-26T02:56:37.068Z,7.30
2018-04-26T02:57:36.545Z,6.60
2018-04-26T02:59:31.015Z,9.40
2018-04-26T03:00:31.513Z,9.50
2018-04-26T03:02:27.935Z,8.80
2018-04-26T03:03:27.942Z,7.30
2018-04-26T03:05:23.433Z,11.70
2018-04-26T03:06:22.911Z,6.90
2018-04-26T03:08:20.876Z,10.30
2018-04-26T03:09:20.832Z,8.60
2018-04-26T03:11:19.309Z,9.70
2018-04-26T03:12:18.793Z,8.70
2018-04-26T03:14:16.746Z,13.10
2018-04-26T03:15:16.717Z,9.80
2018-04-26T03:17:16.650Z,7.70
2018-04-26T03:18:14.783Z,7.50
2018-04-26T03:20:12.764Z,11.10
2018-04-26T03:21:13.228Z,8.80
2018-04-26T03:23:09.183Z,11.40
2018-04-26T03:24:08.681Z,10.60
2018-04-26T03:26:04.614Z,11.90
2018-04-26T03:27:04.619Z,9.10
2018-04-26T03:29:02.068Z,13.10
2018-04-26T03:30:00.538Z,13.80
2018-04-26T03:31:56.514Z,12.20
2018-04-26T03:32:56.485Z,10.70
2018-04-26T03:34:50.901Z,8.10
2018-04-26T03:35:50.910Z,8.30
2018-04-26T03:37:45.375Z,10.60
2018-04-26T03:38:45.347Z,8.70
2018-04-26T03:40:39.792Z,8.60
2018-04-26T03:41:41.226Z,11.40
2018-04-26T03:43:37.714Z,9.40
2018-04-26T03:44:38.229Z,11.40
2018-04-26T03:46:32.153Z,10.20
2018-04-26T03:47:32.151Z,10.80
2018-04-26T03:49:25.599Z,6.50
2018-04-26T03:50:25.587Z,7.30
2018-04-26T03:52:21.539Z,8.70
2018-04-26T03:53:21.535Z,9.70
2018-04-26T03:55:18.983Z,9.90
2018-04-26T03:56:17.501Z,12.40
2018-04-26T03:58:13.948Z,8.60
2018-04-26T03:59:13.960Z,8.20
2018-04-26T04:01:09.412Z,8.80
2018-04-26T04:02:09.886Z,11.40
2018-04-26T04:04:06.333Z,10.90
2018-04-26T04:05:05.834Z,13.40
2018-04-26T04:06:59.767Z,7.90
2018-04-26T04:07:59.753Z,12.30
2018-04-26T04:09:54.699Z,9.50
2018-04-26T04:10:54.185Z,9.60
2018-04-26T04:12:51.557Z,12.20
2018-04-26T04:13:50.679Z,9.50
2018-04-26T04:15:48.078Z,10.70
2018-04-26T04:16:48.019Z,7.70
2018-04-26T04:18:44.481Z,9.50
2018-04-26T04:19:44.475Z,9.70
2018-04-26T04:21:42.909Z,12.40
2018-04-26T04:22:42.395Z,11.10
2018-04-26T04:24:37.334Z,10.80
2018-04-26T04:25:36.316Z,8.40
2018-04-26T04:27:33.235Z,11.10
2018-04-26T04:28:33.251Z,8.10
2018-04-26T04:30:28.704Z,10.40
2018-04-26T04:31:27.697Z,9.50
2018-04-26T04:33:24.639Z,11.50
2018-04-26T04:34:23.634Z,6.40
2018-04-26T04:36:20.588Z,4.40
2018-04-26T04:37:19.534Z,7.20
2018-04-26T04:39:17.996Z,6.90
2018-04-26T04:40:17.471Z,6.90
2018-04-26T04:42:13.426Z,7.20
2018-04-26T04:43:13.393Z,6.10
2018-04-26T04:45:09.387Z,4.20
2018-04-26T04:46:09.336Z,4.80
2018-04-26T04:48:05.289Z,8.00
2018-04-26T04:49:05.272Z,6.90
2018-04-26T04:51:01.748Z,6.50
2018-04-26T04:52:01.211Z,5.60
2018-04-26T04:53:57.125Z,6.80
2018-04-26T04:54:57.140Z,9.60
2018-04-26T04:56:53.595Z,8.40
2018-04-26T04:57:53.083Z,7.00
2018-04-26T04:59:49.024Z,6.60
2018-04-26T05:00:49.531Z,5.30
2018-04-26T05:02:43.502Z,8.10
2018-04-26T05:03:43.503Z,11.30
2018-04-26T05:05:42.453Z,8.40
2018-04-26T05:06:41.544Z,8.60
2018-04-26T05:08:38.008Z,9.30
2018-04-26T05:09:37.507Z,10.00
2018-04-26T05:11:33.422Z,8.30
2018-04-26T05:12:33.415Z,8.90
2018-04-26T05:14:32.885Z,10.00
2018-04-26T05:15:31.501Z,13.70
2018-04-26T05:17:27.422Z,6.40
2018-04-26T05:18:27.929Z,13.70
2018-04-26T05:20:27.875Z,10.50
2018-04-26T05:21:25.890Z,10.20
2018-04-26T05:23:21.326Z,11.10
2018-04-26T05:24:21.318Z,8.70
2018-04-26T05:26:17.761Z,11.30
2018-04-26T05:27:17.241Z,9.80
2018-04-26T05:29:14.669Z,9.70
2018-04-26T05:30:13.144Z,10.10
2018-04-26T05:32:09.092Z,13.80
2018-04-26T05:33:09.072Z,12.40
2018-04-26T05:35:05.045Z,12.30
2018-04-26T05:36:05.045Z,10.20
2018-04-26T05:38:01.528Z,12.30
2018-04-26T05:39:00.994Z,10.80
2018-04-26T05:40:57.458Z,12.10
2018-04-26T05:41:56.947Z,12.40
2018-04-26T05:43:53.400Z,9.40
2018-04-26T05:44:52.901Z,6.80
2018-04-26T05:46:47.828Z,9.10
2018-04-26T05:47:47.842Z,11.90
2018-04-26T05:49:42.772Z,12.10
2018-04-26T05:50:41.752Z,11.50
2018-04-26T05:52:36.731Z,10.00
2018-04-26T05:53:36.711Z,10.30
2018-04-26T05:55:33.646Z,10.70
2018-04-26T05:56:32.635Z,9.60
2018-04-26T05:58:25.552Z,11.00
2018-04-26T05:59:25.611Z,10.40
2018-04-26T06:01:21.494Z,11.40
2018-04-26T06:02:21.491Z,10.90
2018-04-26T06:04:18.443Z,13.80
2018-04-26T06:05:17.427Z,11.00
2018-04-26T06:07:12.397Z,12.50
2018-04-26T06:08:11.870Z,8.50
2018-04-26T06:10:07.845Z,20.30
2018-04-26T06:11:07.791Z,21.00
2018-04-26T06:13:05.749Z,12.20
2018-04-26T06:14:05.733Z,10.10
2018-04-26T06:16:00.148Z,12.90
2018-04-26T06:17:00.293Z,13.80
2018-04-26T06:18:56.600Z,10.80
2018-04-26T06:19:56.088Z,11.00
2018-04-26T06:21:51.551Z,11.90
2018-04-26T06:22:50.556Z,12.70
2018-04-26T06:24:45.496Z,10.00
2018-04-26T06:25:44.976Z,8.10
2018-04-26T06:27:39.434Z,13.00
2018-04-26T06:28:39.414Z,8.50
2018-04-26T06:30:34.382Z,13.10
2018-04-26T06:31:33.835Z,10.90
2018-04-26T06:33:28.279Z,9.80
2018-04-26T06:34:28.792Z,10.00
2018-04-26T06:36:23.729Z,7.90
2018-04-26T06:37:22.686Z,8.90
2018-04-26T06:39:18.626Z,12.70
2018-04-26T06:40:19.139Z,14.30
2018-04-26T06:42:13.125Z,10.80
2018-04-26T06:43:13.057Z,10.10
2018-04-26T06:45:07.509Z,9.40
2018-04-26T06:46:07.513Z,9.70
2018-04-26T06:48:03.467Z,13.30
2018-04-26T06:49:03.436Z,12.40
2018-04-26T06:50:57.952Z,9.40
2018-04-26T06:51:58.902Z,10.30
2018-04-26T06:53:52.894Z,13.10
2018-04-26T06:54:52.885Z,12.50
2018-04-26T06:56:54.384Z,11.00
2018-04-26T06:57:52.312Z,8.20
2018-04-26T06:59:48.115Z,10.20
2018-04-26T07:00:46.176Z,11.20
2018-04-26T07:02:45.130Z,11.40
2018-04-26T07:03:44.629Z,9.90
2018-04-26T07:05:40.157Z,9.50
2018-04-26T07:06:40.577Z,11.10
2018-04-26T07:08:36.008Z,10.40
2018-04-26T07:09:35.000Z,10.80
2018-04-26T07:11:30.459Z,11.20
2018-04-26T07:12:30.929Z,11.40
2018-04-26T07:14:26.370Z,9.80
2018-04-26T07:15:26.374Z,11.90
2018-04-26T07:17:22.816Z,8.90
2018-04-26T07:18:22.308Z,7.30
2018-04-26T07:20:18.244Z,13.50
2018-04-26T07:21:18.244Z,10.90
2018-04-26T07:23:14.200Z,10.40
2018-04-26T07:24:14.182Z,11.80
2018-04-26T07:26:08.596Z,9.50
2018-04-26T07:27:08.608Z,11.50
2018-04-26T07:29:04.550Z,10.40
2018-04-26T07:30:05.060Z,10.60
2018-04-26T07:31:58.973Z,10.40
2018-04-26T07:32:59.012Z,10.20
2018-04-26T07:34:54.971Z,10.00
2018-04-26T07:35:54.924Z,10.60
2018-04-26T07:37:49.407Z,9.80
2018-04-26T07:38:49.369Z,9.60
2018-04-26T07:40:46.305Z,9.70
2018-04-26T07:41:45.279Z,10.80
2018-04-26T07:43:42.183Z,8.10
2018-04-26T07:44:41.242Z,13.00
2018-04-26T07:46:37.206Z,9.20
2018-04-26T07:47:38.176Z,9.50
2018-04-26T07:49:31.134Z,9.40
2018-04-26T07:50:31.136Z,7.80
2018-04-26T07:52:25.567Z,12.30
2018-04-26T07:53:24.048Z,11.10
2018-04-26T07:55:17.530Z,12.10
2018-04-26T07:56:17.523Z,11.50
2018-04-26T07:58:10.963Z,9.70
2018-04-26T07:59:11.491Z,10.50
2018-04-26T08:01:05.437Z,9.70
2018-04-26T08:02:05.402Z,7.40
2018-04-26T08:03:59.852Z,6.70
2018-04-26T08:04:59.826Z,8.80
2018-04-26T08:06:54.276Z,9.50
2018-04-26T08:07:54.285Z,11.60
2018-04-26T08:09:49.268Z,10.50
2018-04-26T08:10:49.222Z,10.50
2018-04-26T08:12:44.178Z,8.80
2018-04-26T08:13:43.335Z,10.50
2018-04-26T08:15:37.797Z,8.30
2018-04-26T08:16:37.736Z,9.20
2018-04-26T08:18:32.173Z,10.80
2018-04-26T08:19:32.172Z,10.70
2018-04-26T08:21:26.615Z,12.10
2018-04-26T08:22:26.605Z,15.30
2018-04-26T08:24:20.077Z,12.30
2018-04-26T08:25:20.047Z,9.20
2018-04-26T08:27:15.506Z,10.60
2018-04-26T08:28:15.005Z,7.50
2018-04-26T08:30:09.459Z,13.80
2018-04-26T08:31:08.963Z,15.00
2018-04-26T08:33:03.839Z,8.80
2018-04-26T08:34:02.375Z,10.20
2018-04-26T08:35:56.866Z,9.40
2018-04-26T08:36:56.829Z,8.70
2018-04-26T08:38:50.236Z,10.00
2018-04-26T08:39:52.762Z,9.00
2018-04-26T08:41:44.713Z,9.30
2018-04-26T08:42:45.617Z,7.40
2018-04-26T08:44:39.147Z,9.50
2018-04-26T08:45:39.117Z,9.80
2018-04-26T08:47:34.071Z,12.00
2018-04-26T08:48:33.582Z,10.90
2018-04-26T08:50:28.023Z,9.50
2018-04-26T08:51:28.019Z,12.70
2018-04-26T08:53:21.490Z,12.90
2018-04-26T08:54:21.524Z,11.30
2018-04-26T08:56:15.874Z,11.20
2018-04-26T08:57:15.852Z,9.80
2018-04-26T08:59:09.821Z,7.70
2018-04-26T09:00:09.290Z,10.00
2018-04-26T09:02:04.242Z,9.10
2018-04-26T09:03:04.272Z,10.70
2018-04-26T09:04:58.208Z,9.20
2018-04-26T09:05:58.205Z,9.80
2018-04-26T09:07:52.678Z,10.40
2018-04-26T09:08:52.649Z,6.60
2018-04-26T09:10:47.091Z,7.90
2018-04-26T09:11:47.602Z,10.10
2018-04-26T09:13:43.527Z,10.50
2018-04-26T09:14:43.539Z,11.20
2018-04-26T09:16:36.484Z,9.20
2018-04-26T09:17:36.975Z,8.50
2018-04-26T09:19:31.432Z,6.70
2018-04-26T09:20:31.872Z,6.70
2018-04-26T09:22:25.411Z,5.90
2018-04-26T09:23:25.887Z,5.70
2018-04-26T09:25:19.308Z,11.10
2018-04-26T09:26:18.815Z,13.90
2018-04-26T09:28:12.775Z,7.80
2018-04-26T09:29:12.250Z,10.40
2018-04-26T09:31:05.737Z,6.80
2018-04-26T09:32:06.213Z,7.50
2018-04-26T09:34:01.164Z,8.20
2018-04-26T09:35:00.660Z,7.30
2018-04-26T09:36:55.097Z,7.30
2018-04-26T09:37:54.578Z,7.00
2018-04-26T09:39:49.033Z,11.50
2018-04-26T09:40:49.032Z,8.20
2018-04-26T09:42:43.494Z,7.70
2018-04-26T09:43:43.478Z,6.00
2018-04-26T09:45:37.895Z,9.80
2018-04-26T09:46:37.906Z,11.70
2018-04-26T09:48:32.905Z,8.50
2018-04-26T09:49:32.339Z,6.60
2018-04-26T09:51:31.808Z,4.80
2018-04-26T09:52:30.411Z,6.40
2018-04-26T09:54:28.888Z,7.90
2018-04-26T09:55:28.518Z,6.80
2018-04-26T09:57:24.472Z,9.30
2018-04-26T09:58:24.444Z,9.50
2018-04-26T10:00:17.899Z,9.40
2018-04-26T10:01:17.895Z,6.20
2018-04-26T10:03:12.413Z,8.10
2018-04-26T10:04:12.861Z,6.20
2018-04-26T10:06:06.817Z,7.20
2018-04-26T10:07:06.759Z,6.50
2018-04-26T10:09:01.238Z,8.20
2018-04-26T10:10:01.187Z,8.70
2018-04-26T10:11:55.146Z,10.50
2018-04-26T10:12:54.184Z,8.40
2018-04-26T10:14:50.142Z,6.00
2018-04-26T10:15:48.633Z,6.60
2018-04-26T10:17:43.599Z,8.90
2018-04-26T10:18:43.092Z,8.50
2018-04-26T10:20:37.546Z,6.40
2018-04-26T10:21:37.526Z,5.90
2018-04-26T10:23:30.988Z,9.00
2018-04-26T10:24:30.961Z,6.40
2018-04-26T10:26:24.432Z,6.90
2018-04-26T10:27:24.409Z,10.30
2018-04-26T10:29:17.835Z,5.60
2018-04-26T10:30:17.851Z,5.10
2018-04-26T10:32:12.294Z,6.40
2018-04-26T10:33:12.306Z,6.80
2018-04-26T10:35:06.762Z,6.00
2018-04-26T10:36:06.749Z,4.80
2018-04-26T10:38:02.204Z,6.40
2018-04-26T10:39:01.200Z,5.20
2018-04-26T10:40:55.640Z,8.90
2018-04-26T10:41:55.643Z,8.20
2018-04-26T10:43:52.090Z,6.30
2018-04-26T10:44:50.088Z,5.60
2018-04-26T10:46:43.571Z,8.90
2018-04-26T10:47:43.541Z,6.40
2018-04-26T10:49:38.006Z,7.30
2018-04-26T10:50:37.973Z,5.80
2018-04-26T10:52:32.454Z,4.80
2018-04-26T10:53:32.938Z,8.80
2018-04-26T10:55:27.390Z,5.90
2018-04-26T10:56:26.842Z,7.00
2018-04-26T10:58:22.219Z,6.20
2018-04-26T10:59:21.794Z,6.90
2018-04-26T11:01:16.235Z,7.00
2018-04-26T11:02:15.747Z,7.40
2018-04-26T11:04:10.191Z,5.30
2018-04-26T11:05:10.704Z,4.30
2018-04-26T11:07:05.158Z,6.80
2018-04-26T11:08:04.626Z,8.00
2018-04-26T11:09:58.108Z,7.90
2018-04-26T11:10:58.095Z,6.50
2018-04-26T11:12:51.540Z,6.90
2018-04-26T11:13:52.056Z,7.80
2018-04-26T11:15:47.466Z,6.50
2018-04-26T11:16:47.993Z,8.40
2018-04-26T11:18:41.435Z,8.80
2018-04-26T11:19:41.847Z,8.20
2018-04-26T11:21:35.377Z,7.60
2018-04-26T11:22:35.874Z,7.80
2018-04-26T11:24:28.833Z,7.40
2018-04-26T11:25:29.312Z,6.80
2018-04-26T11:27:23.238Z,8.40
2018-04-26T11:28:23.227Z,8.90
2018-04-26T11:30:17.696Z,10.40
2018-04-26T11:31:17.695Z,7.60
2018-04-26T11:33:14.128Z,10.00
2018-04-26T11:34:13.619Z,12.10
2018-04-26T11:36:08.108Z,5.70
2018-04-26T11:37:08.043Z,4.00
2018-04-26T11:39:04.986Z,8.70
2018-04-26T11:40:03.989Z,6.10
2018-04-26T11:42:00.364Z,6.40
2018-04-26T11:42:58.437Z,6.00
2018-04-26T11:44:56.456Z,5.90
2018-04-26T11:45:56.374Z,6.50
2018-04-26T11:47:52.354Z,9.90
2018-04-26T11:48:52.334Z,7.90
2018-04-26T11:50:47.283Z,5.70
2018-04-26T11:51:46.764Z,7.90
2018-04-26T11:53:40.206Z,7.80
2018-04-26T11:54:40.198Z,9.30
2018-04-26T11:56:38.144Z,7.30
2018-04-26T11:57:38.658Z,10.60
2018-04-26T11:59:32.581Z,10.70
2018-04-26T12:00:32.587Z,8.30
2018-04-26T12:02:29.040Z,6.00
2018-04-26T12:03:28.515Z,6.20
2018-04-26T12:05:21.984Z,7.00
2018-04-26T12:06:21.928Z,8.30
2018-04-26T12:08:18.394Z,7.90
2018-04-26T12:09:17.868Z,5.60
2018-04-26T12:11:12.299Z,8.40
2018-04-26T12:12:12.315Z,8.60
2018-04-26T12:14:08.297Z,8.40
2018-04-26T12:15:08.292Z,9.00
2018-04-26T12:17:04.273Z,6.70
2018-04-26T12:18:04.745Z,7.00
2018-04-26T12:20:00.193Z,8.00
2018-04-26T12:21:00.168Z,7.60
2018-04-26T12:22:53.605Z,5.50
2018-04-26T12:23:53.641Z,9.10
2018-04-26T12:25:48.589Z,7.50
2018-04-26T12:26:48.038Z,10.00
2018-04-26T12:28:46.992Z,8.40
2018-04-26T12:29:47.014Z,7.20
2018-04-26T12:31:42.084Z,8.20
2018-04-26T12:32:42.102Z,6.60
2018-04-26T12:34:36.055Z,7.20
2018-04-26T12:35:35.522Z,5.50
2018-04-26T12:37:29.483Z,5.10
2018-04-26T12:38:28.968Z,5.80
2018-04-26T12:40:23.424Z,7.30
2018-04-26T12:41:23.412Z,7.90
2018-04-26T12:43:17.867Z,4.80
2018-04-26T12:44:18.374Z,4.20
2018-04-26T12:46:13.338Z,6.40
2018-04-26T12:47:12.834Z,5.40
2018-04-26T12:49:08.246Z,12.20
2018-04-26T12:50:08.253Z,7.30
2018-04-26T12:52:04.720Z,5.00
2018-04-26T12:53:04.706Z,5.90
2018-04-26T12:54:58.632Z,5.70
2018-04-26T12:55:58.711Z,6.70
2018-04-26T12:57:52.092Z,6.50
2018-04-26T12:58:52.099Z,5.30
2018-04-26T13:00:46.577Z,7.30
2018-04-26T13:01:46.539Z,7.40
2018-04-26T13:03:43.512Z,8.20
2018-04-26T13:04:42.492Z,9.30
2018-04-26T13:06:38.476Z,6.10
2018-04-26T13:07:38.455Z,7.70
2018-04-26T13:09:34.406Z,8.50
2018-04-26T13:10:34.393Z,6.90
2018-04-26T13:12:28.360Z,6.60
2018-04-26T13:13:27.871Z,7.70
2018-04-26T13:15:24.297Z,6.20
2018-04-26T13:16:23.774Z,6.90
2018-04-26T13:18:19.731Z,6.40
2018-04-26T13:19:19.715Z,8.60
2018-04-26T13:21:14.203Z,6.40
2018-04-26T13:22:14.665Z,7.40
2018-04-26T13:24:10.617Z,6.10
2018-04-26T13:25:11.628Z,6.20
2018-04-26T13:27:04.567Z,5.40
2018-04-26T13:28:04.566Z,7.40
2018-04-26T13:29:58.067Z,6.80
2018-04-26T13:30:58.039Z,7.90
2018-04-26T13:32:52.996Z,7.90
2018-04-26T13:33:52.482Z,6.20
2018-04-26T13:35:48.429Z,8.20
2018-04-26T13:36:47.433Z,6.10
2018-04-26T13:38:40.396Z,5.40
2018-04-26T13:39:40.404Z,4.70
2018-04-26T13:41:33.842Z,5.80
2018-04-26T13:42:33.840Z,9.20
2018-04-26T13:44:28.264Z,6.20
2018-04-26T13:45:28.273Z,5.90
2018-04-26T13:47:23.743Z,7.20
2018-04-26T13:48:22.720Z,8.30
2018-04-26T13:50:18.696Z,5.00
2018-04-26T13:51:18.674Z,4.50
2018-04-26T13:53:14.652Z,6.80
2018-04-26T13:54:14.615Z,5.90
2018-04-26T13:56:10.094Z,6.60
2018-04-26T13:57:09.040Z,4.70
2018-04-26T13:59:03.524Z,6.50
2018-04-26T14:00:03.490Z,5.30
2018-04-26T14:01:59.440Z,6.00
2018-04-26T14:02:57.972Z,8.60
2018-04-26T14:04:53.981Z,7.80
2018-04-26T14:05:53.914Z,7.70
2018-04-26T14:07:48.870Z,5.70
2018-04-26T14:08:48.357Z,5.90
2018-04-26T14:10:42.830Z,5.80
2018-04-26T14:11:42.832Z,5.90
2018-04-26T14:13:41.796Z,10.40
2018-04-26T14:14:40.932Z,7.60
2018-04-26T14:16:36.905Z,8.70
2018-04-26T14:17:37.887Z,6.70
2018-04-26T14:19:33.386Z,7.00
2018-04-26T14:20:32.854Z,4.40
2018-04-26T14:22:27.813Z,3.00
2018-04-26T14:23:27.323Z,7.30
2018-04-26T14:25:23.235Z,4.00
2018-04-26T14:26:23.227Z,4.60
2018-04-26T14:28:17.705Z,4.20
2018-04-26T14:29:19.290Z,4.60
2018-04-26T14:31:11.119Z,3.60
2018-04-26T14:32:11.124Z,4.30
2018-04-26T14:34:06.076Z,5.10
2018-04-26T14:35:05.571Z,4.40
2018-04-26T14:37:00.529Z,6.00
2018-04-26T14:38:00.015Z,5.40
2018-04-26T14:39:54.461Z,4.00
2018-04-26T14:40:54.460Z,4.30
2018-04-26T14:42:48.932Z,7.10
2018-04-26T14:43:49.413Z,5.20
2018-04-26T14:45:42.887Z,5.20
2018-04-26T14:46:42.352Z,4.40
2018-04-26T14:48:38.288Z,4.30
2018-04-26T14:49:37.341Z,3.50
2018-04-26T14:51:33.730Z,4.90
2018-04-26T14:52:32.728Z,3.90
2018-04-26T14:54:28.682Z,4.80
2018-04-26T14:55:27.695Z,2.50
2018-04-26T14:57:22.634Z,4.40
2018-04-26T14:58:21.637Z,4.10
2018-04-26T15:00:16.594Z,5.30
2018-04-26T15:01:16.093Z,4.80
2018-04-26T15:03:10.541Z,6.20
2018-04-26T15:04:10.533Z,4.20
2018-04-26T15:06:06.516Z,5.70
2018-04-26T15:07:06.462Z,4.10
2018-04-26T15:09:02.433Z,6.20
2018-04-26T15:10:03.428Z,5.30
2018-04-26T15:11:55.862Z,5.60
2018-04-26T15:12:55.862Z,4.30
2018-04-26T15:14:50.813Z,6.60
2018-04-26T15:15:50.307Z,7.60
2018-04-26T15:17:43.733Z,6.80
2018-04-26T15:18:43.736Z,5.80
2018-04-26T15:20:37.693Z,8.30
2018-04-26T15:21:38.657Z,9.30
2018-04-26T15:23:33.161Z,7.60
2018-04-26T15:24:33.146Z,4.20
2018-04-26T15:26:30.102Z,4.20
2018-04-26T15:27:29.605Z,4.80
2018-04-26T15:29:25.043Z,6.20
2018-04-26T15:30:25.026Z,5.20
2018-04-26T15:32:19.975Z,4.80
2018-04-26T15:33:19.996Z,6.40
2018-04-26T15:35:16.941Z,4.60
2018-04-26T15:36:15.946Z,4.70
2018-04-26T15:38:11.362Z,4.50
2018-04-26T15:39:11.874Z,5.20
2018-04-26T15:41:07.297Z,5.30
2018-04-26T15:42:07.820Z,4.70
2018-04-26T15:44:03.295Z,4.20
2018-04-26T15:45:03.259Z,5.40
2018-04-26T15:46:56.728Z,4.90
2018-04-26T15:47:57.204Z,4.10
2018-04-26T15:49:51.199Z,5.20
2018-04-26T15:50:51.141Z,4.30
2018-04-26T15:52:47.102Z,6.70
2018-04-26T15:53:48.035Z,4.80
2018-04-26T15:55:43.598Z,4.70
2018-04-26T15:56:43.010Z,6.00
2018-04-26T15:58:39.542Z,3.30
2018-04-26T15:59:38.952Z,3.90
2018-04-26T16:01:32.472Z,3.50
2018-04-26T16:02:32.912Z,5.30
2018-04-26T16:04:29.362Z,6.60
2018-04-26T16:05:29.359Z,7.30
2018-04-26T16:07:22.331Z,4.70
2018-04-26T16:08:22.327Z,5.20
2018-04-26T16:10:16.778Z,9.80
2018-04-26T16:11:17.269Z,4.30
2018-04-26T16:13:11.226Z,4.40
2018-04-26T16:14:10.719Z,5.20
2018-04-26T16:16:05.680Z,5.10
2018-04-26T16:17:05.178Z,4.30
2018-04-26T16:19:00.161Z,6.80
2018-04-26T16:20:00.097Z,5.70
2018-04-26T16:21:53.071Z,4.90
2018-04-26T16:22:53.036Z,4.10
2018-04-26T16:24:51.984Z,6.60
2018-04-26T16:25:50.980Z,5.00
2018-04-26T16:27:45.919Z,3.70
2018-04-26T16:28:45.432Z,2.70
2018-04-26T16:30:40.900Z,3.20
2018-04-26T16:31:39.878Z,3.00
2018-04-26T16:33:36.333Z,3.80
2018-04-26T16:34:35.340Z,3.10
2018-04-26T16:36:29.366Z,2.20
2018-04-26T16:37:28.847Z,2.00
2018-04-26T16:39:24.820Z,3.30
2018-04-26T16:40:24.818Z,7.60
2018-04-26T16:42:20.754Z,5.20
2018-04-26T16:43:20.763Z,4.50
2018-04-26T16:45:15.232Z,3.00
2018-04-26T16:46:15.210Z,3.00
2018-04-26T16:48:09.675Z,3.00
2018-04-26T16:49:10.226Z,3.20
2018-04-26T16:51:04.622Z,4.90
2018-04-26T16:52:04.108Z,5.40
2018-04-26T16:53:58.539Z,5.20
2018-04-26T16:54:59.053Z,4.90
2018-04-26T16:56:54.495Z,5.20
2018-04-26T16:57:55.441Z,4.60
2018-04-26T16:59:50.025Z,4.50
2018-04-26T17:00:48.957Z,3.40
2018-04-26T17:02:42.408Z,5.10
2018-04-26T17:03:42.392Z,3.90
2018-04-26T17:05:38.870Z,5.80
2018-04-26T17:06:38.864Z,3.60
2018-04-26T17:08:32.325Z,5.40
2018-04-26T17:09:32.315Z,5.70
2018-04-26T17:11:27.272Z,3.80
2018-04-26T17:12:26.234Z,6.90
2018-04-26T17:14:20.667Z,6.90
2018-04-26T17:15:20.689Z,8.10
2018-04-26T17:17:15.650Z,4.00
2018-04-26T17:18:15.123Z,3.70
2018-04-26T17:20:10.090Z,5.40
2018-04-26T17:21:10.083Z,5.90
2018-04-26T17:23:04.018Z,6.90
2018-04-26T17:24:04.519Z,4.90
2018-04-26T17:25:58.462Z,4.80
2018-04-26T17:26:58.423Z,4.30
2018-04-26T17:28:54.872Z,4.20
2018-04-26T17:29:54.370Z,3.90
2018-04-26T17:31:51.325Z,7.70
2018-04-26T17:32:50.309Z,3.70
2018-04-26T17:34:44.312Z,3.50
2018-04-26T17:35:43.729Z,3.50
2018-04-26T17:37:38.199Z,6.00
2018-04-26T17:38:39.188Z,4.70
2018-04-26T17:40:34.184Z,6.00
2018-04-26T17:41:34.148Z,4.50
2018-04-26T17:43:28.614Z,4.50
2018-04-26T17:44:28.584Z,5.90
2018-04-26T17:46:24.566Z,5.40
2018-04-26T17:47:25.969Z,4.70
2018-04-26T17:49:18.494Z,4.70
2018-04-26T17:50:18.005Z,5.20
2018-04-26T17:52:14.442Z,5.10
2018-04-26T17:53:13.986Z,4.50
2018-04-26T17:55:09.922Z,6.20
2018-04-26T17:56:09.896Z,4.60
2018-04-26T17:58:05.864Z,8.60
2018-04-26T17:59:06.353Z,7.60
2018-04-26T18:01:01.783Z,6.10
2018-04-26T18:02:01.785Z,4.50
2018-04-26T18:03:57.303Z,5.90
2018-04-26T18:04:56.244Z,4.10
2018-04-26T18:06:52.213Z,3.60
2018-04-26T18:07:52.184Z,6.90
2018-04-26T18:09:45.646Z,6.30
2018-04-26T18:10:46.137Z,5.30
2018-04-26T18:12:40.595Z,6.50
2018-04-26T18:13:40.078Z,5.60
2018-04-26T18:15:33.493Z,6.40
2018-04-26T18:16:34.028Z,6.20
2018-04-26T18:18:27.943Z,4.60
2018-04-26T18:19:27.925Z,6.00
2018-04-26T18:21:22.381Z,6.30
2018-04-26T18:22:22.355Z,4.80
2018-04-26T18:24:15.836Z,4.50
2018-04-26T18:25:15.871Z,4.40
2018-04-26T18:27:10.276Z,7.40
2018-04-26T18:28:10.302Z,5.40
2018-04-26T18:30:05.244Z,5.40
2018-04-26T18:31:04.714Z,5.40
2018-04-26T18:32:59.687Z,3.20
2018-04-26T18:33:59.152Z,6.20
2018-04-26T18:35:53.698Z,4.10
2018-04-26T18:36:53.592Z,6.90
2018-04-26T18:38:49.569Z,6.70
2018-04-26T18:39:49.528Z,7.20
2018-04-26T18:41:44.497Z,3.60
2018-04-26T18:42:43.962Z,5.30
2018-04-26T18:44:38.927Z,5.10
2018-04-26T18:45:38.406Z,4.20
2018-04-26T18:47:32.865Z,5.10
2018-04-26T18:48:32.354Z,6.60
2018-04-26T18:50:26.267Z,4.40
2018-04-26T18:51:26.365Z,5.40
2018-04-26T18:53:20.752Z,4.80
2018-04-26T18:54:21.239Z,5.20
2018-04-26T18:56:15.699Z,4.70
2018-04-26T18:57:15.143Z,7.30
2018-04-26T18:59:08.609Z,7.80
2018-04-26T19:00:09.086Z,6.00
2018-04-26T19:02:03.531Z,7.10
2018-04-26T19:03:03.037Z,5.70
2018-04-26T19:04:58.945Z,4.50
2018-04-26T19:05:58.949Z,3.40
2018-04-26T19:07:54.919Z,6.00
2018-04-26T19:08:53.980Z,4.90
2018-04-26T19:10:50.343Z,5.80
2018-04-26T19:11:48.347Z,8.00
2018-04-26T19:13:42.799Z,8.80
2018-04-26T19:14:42.285Z,6.30
2018-04-26T19:16:37.750Z,7.60